RKTN/TAE METAR and TAF weather

Enter ICAO airport designator
Station Type Date Time Source
RKTN METAR 2021/07/26 16:00 UTC NOAA

RKTN 261600Z 04001KT CAVOK 25/21 Q1005


Station Type Date Time Source
RKTN Decoded METAR 2021/07/26 16:00 UTC NOAA

Taegu Ab, Korea, South (RKTN) 35-54N 128-39E 37M
Jul 26, 2021 - 12:00 PM EDT / 2021.07.26 1600 UTC
Wind: from the NE (040 degrees) at 1 MPH (1 KT):0
Visibility: greater than 7 mile(s):0
Temperature: 77 F (25 C)
Dew Point: 69 F (21 C)
Relative Humidity: 78%
Pressure (altimeter): 29.68 in. Hg (1005 hPa)
ob: RKTN 261600Z 04001KT CAVOK 25/21 Q1005
cycle: 16

Station Type Date Time Source
RKTN TAF 2021/07/26 12:06 UTC NOAA

TAF RKTN 261100Z 2612/2718 09006KT 9999 SCT050 SCT200 TN23/2621Z TX35/2706Z

Example: see airport list